sensor_id;sensor_type;location;lat;lon;timestamp;temperature;humidity
10133;DHT22;5106;50.926;7.080;2022-07-06T00:01:35;17.00;72.00
10133;DHT22;5106;50.926;7.080;2022-07-06T00:04:02;16.90;71.80
10133;DHT22;5106;50.926;7.080;2022-07-06T00:06:27;16.90;71.70
10133;DHT22;5106;50.926;7.080;2022-07-06T00:08:53;16.80;71.50
10133;DHT22;5106;50.926;7.080;2022-07-06T00:11:19;16.80;71.80
10133;DHT22;5106;50.926;7.080;2022-07-06T00:13:45;16.70;72.00
10133;DHT22;5106;50.926;7.080;2022-07-06T00:16:10;16.60;72.40
10133;DHT22;5106;50.926;7.080;2022-07-06T00:18:36;16.50;72.50
10133;DHT22;5106;50.926;7.080;2022-07-06T00:21:02;16.40;72.60
10133;DHT22;5106;50.926;7.080;2022-07-06T00:23:28;16.20;72.70
10133;DHT22;5106;50.926;7.080;2022-07-06T00:25:53;16.10;72.80
10133;DHT22;5106;50.926;7.080;2022-07-06T00:28:19;16.00;73.40
10133;DHT22;5106;50.926;7.080;2022-07-06T00:30:45;15.90;73.30
10133;DHT22;5106;50.926;7.080;2022-07-06T00:33:10;15.90;73.40
10133;DHT22;5106;50.926;7.080;2022-07-06T00:35:36;15.80;73.00
10133;DHT22;5106;50.926;7.080;2022-07-06T00:38:02;15.80;73.40
10133;DHT22;5106;50.926;7.080;2022-07-06T00:40:28;15.70;73.50
10133;DHT22;5106;50.926;7.080;2022-07-06T00:42:55;15.70;73.80
10133;DHT22;5106;50.926;7.080;2022-07-06T00:45:21;15.60;73.60
10133;DHT22;5106;50.926;7.080;2022-07-06T00:47:46;15.70;73.50
10133;DHT22;5106;50.926;7.080;2022-07-06T00:50:14;15.60;73.30
10133;DHT22;5106;50.926;7.080;2022-07-06T00:53:06;15.60;73.40
10133;DHT22;5106;50.926;7.080;2022-07-06T00:55:36;15.60;73.90
10133;DHT22;5106;50.926;7.080;2022-07-06T00:58:07;15.50;73.80
10133;DHT22;5106;50.926;7.080;2022-07-06T01:00:33;15.50;74.10
10133;DHT22;5106;50.926;7.080;2022-07-06T01:02:59;15.50;74.20
10133;DHT22;5106;50.926;7.080;2022-07-06T01:05:25;15.50;74.20
10133;DHT22;5106;50.926;7.080;2022-07-06T01:07:52;15.50;74.50
10133;DHT22;5106;50.926;7.080;2022-07-06T01:10:20;15.50;74.10
10133;DHT22;5106;50.926;7.080;2022-07-06T01:12:47;15.60;74.20
10133;DHT22;5106;50.926;7.080;2022-07-06T01:15:18;15.60;74.30
10133;DHT22;5106;50.926;7.080;2022-07-06T01:17:44;15.60;74.30
10133;DHT22;5106;50.926;7.080;2022-07-06T01:20:35;15.60;74.30
10133;DHT22;5106;50.926;7.080;2022-07-06T01:23:01;15.60;74.50
10133;DHT22;5106;50.926;7.080;2022-07-06T01:25:27;15.60;74.40
10133;DHT22;5106;50.926;7.080;2022-07-06T01:27:52;15.60;74.10
10133;DHT22;5106;50.926;7.080;2022-07-06T01:30:19;15.60;74.30
10133;DHT22;5106;50.926;7.080;2022-07-06T01:32:45;15.50;74.40
10133;DHT22;5106;50.926;7.080;2022-07-06T01:35:13;15.50;74.60
10133;DHT22;5106;50.926;7.080;2022-07-06T01:37:40;15.40;74.60
10133;DHT22;5106;50.926;7.080;2022-07-06T01:40:07;15.40;74.60
10133;DHT22;5106;50.926;7.080;2022-07-06T01:42:34;15.30;74.80
10133;DHT22;5106;50.926;7.080;2022-07-06T01:45:00;15.30;74.90
10133;DHT22;5106;50.926;7.080;2022-07-06T01:47:26;15.30;75.00
10133;DHT22;5106;50.926;7.080;2022-07-06T01:49:52;15.20;74.90
10133;DHT22;5106;50.926;7.080;2022-07-06T01:52:17;15.20;75.00
10133;DHT22;5106;50.926;7.080;2022-07-06T01:54:43;15.20;75.00
10133;DHT22;5106;50.926;7.080;2022-07-06T01:57:09;15.10;75.00
10133;DHT22;5106;50.926;7.080;2022-07-06T01:59:34;15.10;75.10
10133;DHT22;5106;50.926;7.080;2022-07-06T02:02:01;15.00;75.20
10133;DHT22;5106;50.926;7.080;2022-07-06T02:04:26;15.00;75.40
10133;DHT22;5106;50.926;7.080;2022-07-06T02:06:52;15.00;75.30
10133;DHT22;5106;50.926;7.080;2022-07-06T02:09:17;14.90;75.20
10133;DHT22;5106;50.926;7.080;2022-07-06T02:11:44;14.90;75.00
10133;DHT22;5106;50.926;7.080;2022-07-06T02:14:10;14.80;75.20
10133;DHT22;5106;50.926;7.080;2022-07-06T02:16:35;14.80;75.20
10133;DHT22;5106;50.926;7.080;2022-07-06T02:19:01;14.70;75.60
10133;DHT22;5106;50.926;7.080;2022-07-06T02:21:27;14.70;75.50
10133;DHT22;5106;50.926;7.080;2022-07-06T02:23:53;14.70;75.60
10133;DHT22;5106;50.926;7.080;2022-07-06T02:26:18;14.60;75.50
10133;DHT22;5106;50.926;7.080;2022-07-06T02:28:45;14.60;75.70
10133;DHT22;5106;50.926;7.080;2022-07-06T02:31:14;14.60;75.80
10133;DHT22;5106;50.926;7.080;2022-07-06T02:33:40;14.60;75.60
10133;DHT22;5106;50.926;7.080;2022-07-06T02:36:06;14.50;75.50
10133;DHT22;5106;50.926;7.080;2022-07-06T02:38:31;14.50;75.40
10133;DHT22;5106;50.926;7.080;2022-07-06T02:40:57;14.50;75.70
10133;DHT22;5106;50.926;7.080;2022-07-06T02:43:23;14.50;75.80
10133;DHT22;5106;50.926;7.080;2022-07-06T02:45:48;14.50;75.90
10133;DHT22;5106;50.926;7.080;2022-07-06T02:48:14;14.50;75.60
10133;DHT22;5106;50.926;7.080;2022-07-06T02:50:39;14.40;75.70
10133;DHT22;5106;50.926;7.080;2022-07-06T02:53:05;14.40;75.70
10133;DHT22;5106;50.926;7.080;2022-07-06T02:55:31;14.40;76.00
10133;DHT22;5106;50.926;7.080;2022-07-06T02:57:56;14.50;76.10
10133;DHT22;5106;50.926;7.080;2022-07-06T03:00:22;14.50;76.00
10133;DHT22;5106;50.926;7.080;2022-07-06T03:02:48;14.40;76.30
10133;DHT22;5106;50.926;7.080;2022-07-06T03:05:13;14.40;76.10
10133;DHT22;5106;50.926;7.080;2022-07-06T03:07:39;14.40;76.20
10133;DHT22;5106;50.926;7.080;2022-07-06T03:10:05;14.40;76.00
10133;DHT22;5106;50.926;7.080;2022-07-06T03:12:31;14.40;75.80
10133;DHT22;5106;50.926;7.080;2022-07-06T03:14:57;14.40;76.10
10133;DHT22;5106;50.926;7.080;2022-07-06T03:17:22;14.40;75.80
10133;DHT22;5106;50.926;7.080;2022-07-06T03:19:48;14.40;76.10
10133;DHT22;5106;50.926;7.080;2022-07-06T03:22:14;14.30;76.30
10133;DHT22;5106;50.926;7.080;2022-07-06T03:24:39;14.30;76.20
10133;DHT22;5106;50.926;7.080;2022-07-06T03:27:05;14.30;76.10
10133;DHT22;5106;50.926;7.080;2022-07-06T03:29:31;14.20;76.30
10133;DHT22;5106;50.926;7.080;2022-07-06T03:31:56;14.10;76.40
10133;DHT22;5106;50.926;7.080;2022-07-06T03:34:22;14.00;76.40
10133;DHT22;5106;50.926;7.080;2022-07-06T03:36:48;14.00;76.70
10133;DHT22;5106;50.926;7.080;2022-07-06T03:39:13;13.90;77.00
10133;DHT22;5106;50.926;7.080;2022-07-06T03:41:39;13.90;77.30
10133;DHT22;5106;50.926;7.080;2022-07-06T03:44:05;13.90;77.10
10133;DHT22;5106;50.926;7.080;2022-07-06T03:46:30;13.80;77.50
10133;DHT22;5106;50.926;7.080;2022-07-06T03:48:56;13.80;77.80
10133;DHT22;5106;50.926;7.080;2022-07-06T03:51:22;13.70;77.90
10133;DHT22;5106;50.926;7.080;2022-07-06T03:53:47;13.60;78.30
10133;DHT22;5106;50.926;7.080;2022-07-06T03:56:13;13.50;78.70
10133;DHT22;5106;50.926;7.080;2022-07-06T03:58:57;13.40;79.00
10133;DHT22;5106;50.926;7.080;2022-07-06T04:01:24;13.30;79.10
10133;DHT22;5106;50.926;7.080;2022-07-06T04:03:49;13.30;79.30
10133;DHT22;5106;50.926;7.080;2022-07-06T04:06:15;13.30;79.40
10133;DHT22;5106;50.926;7.080;2022-07-06T04:08:41;13.30;79.40
10133;DHT22;5106;50.926;7.080;2022-07-06T04:11:07;13.20;79.70
10133;DHT22;5106;50.926;7.080;2022-07-06T04:13:33;13.20;79.90
10133;DHT22;5106;50.926;7.080;2022-07-06T04:15:59;13.20;80.10
10133;DHT22;5106;50.926;7.080;2022-07-06T04:18:25;13.20;79.90
10133;DHT22;5106;50.926;7.080;2022-07-06T04:20:50;13.20;80.00
10133;DHT22;5106;50.926;7.080;2022-07-06T04:23:16;13.30;80.00
10133;DHT22;5106;50.926;7.080;2022-07-06T04:25:41;13.30;80.10
10133;DHT22;5106;50.926;7.080;2022-07-06T04:28:07;13.30;80.40
10133;DHT22;5106;50.926;7.080;2022-07-06T04:30:33;13.30;80.30
10133;DHT22;5106;50.926;7.080;2022-07-06T04:32:59;13.40;80.40
10133;DHT22;5106;50.926;7.080;2022-07-06T04:35:25;13.40;80.50
10133;DHT22;5106;50.926;7.080;2022-07-06T04:37:50;13.50;80.50
10133;DHT22;5106;50.926;7.080;2022-07-06T04:40:16;13.60;80.40
10133;DHT22;5106;50.926;7.080;2022-07-06T04:42:42;13.60;80.30
10133;DHT22;5106;50.926;7.080;2022-07-06T04:45:08;13.70;80.40
10133;DHT22;5106;50.926;7.080;2022-07-06T04:47:34;13.70;80.40
10133;DHT22;5106;50.926;7.080;2022-07-06T04:50:01;13.80;80.00
10133;DHT22;5106;50.926;7.080;2022-07-06T04:52:26;13.80;80.10
10133;DHT22;5106;50.926;7.080;2022-07-06T04:54:54;13.80;80.30
10133;DHT22;5106;50.926;7.080;2022-07-06T04:57:20;13.90;80.10
10133;DHT22;5106;50.926;7.080;2022-07-06T04:59:45;13.90;80.20
10133;DHT22;5106;50.926;7.080;2022-07-06T05:02:11;14.00;79.70
10133;DHT22;5106;50.926;7.080;2022-07-06T05:04:37;13.90;79.60
10133;DHT22;5106;50.926;7.080;2022-07-06T05:07:02;14.00;79.90
10133;DHT22;5106;50.926;7.080;2022-07-06T05:09:28;14.00;79.80
10133;DHT22;5106;50.926;7.080;2022-07-06T05:11:54;14.00;80.00
10133;DHT22;5106;50.926;7.080;2022-07-06T05:14:20;13.90;80.00
10133;DHT22;5106;50.926;7.080;2022-07-06T05:16:46;13.90;79.80
10133;DHT22;5106;50.926;7.080;2022-07-06T05:19:11;13.90;79.70
10133;DHT22;5106;50.926;7.080;2022-07-06T05:21:37;13.90;79.80
10133;DHT22;5106;50.926;7.080;2022-07-06T05:24:03;13.90;79.90
10133;DHT22;5106;50.926;7.080;2022-07-06T05:26:29;13.90;79.20
10133;DHT22;5106;50.926;7.080;2022-07-06T05:28:54;13.90;79.00
10133;DHT22;5106;50.926;7.080;2022-07-06T05:31:20;14.00;78.80
10133;DHT22;5106;50.926;7.080;2022-07-06T05:33:46;14.00;78.60
10133;DHT22;5106;50.926;7.080;2022-07-06T05:36:11;14.00;78.60
10133;DHT22;5106;50.926;7.080;2022-07-06T05:38:37;14.00;78.40
10133;DHT22;5106;50.926;7.080;2022-07-06T05:41:03;14.10;78.10
10133;DHT22;5106;50.926;7.080;2022-07-06T05:43:28;14.00;78.20
10133;DHT22;5106;50.926;7.080;2022-07-06T05:45:54;14.10;78.70
10133;DHT22;5106;50.926;7.080;2022-07-06T05:48:19;14.10;78.20
10133;DHT22;5106;50.926;7.080;2022-07-06T05:51:03;14.10;77.90
10133;DHT22;5106;50.926;7.080;2022-07-06T05:53:29;14.20;78.50
10133;DHT22;5106;50.926;7.080;2022-07-06T05:55:55;14.20;77.90
10133;DHT22;5106;50.926;7.080;2022-07-06T05:58:20;14.30;78.20
10133;DHT22;5106;50.926;7.080;2022-07-06T06:00:46;14.30;78.40
10133;DHT22;5106;50.926;7.080;2022-07-06T06:03:12;14.40;78.50
10133;DHT22;5106;50.926;7.080;2022-07-06T06:05:37;14.50;78.20
10133;DHT22;5106;50.926;7.080;2022-07-06T06:08:03;14.50;78.50
10133;DHT22;5106;50.926;7.080;2022-07-06T06:10:29;14.60;78.50
10133;DHT22;5106;50.926;7.080;2022-07-06T06:12:55;14.70;77.90
10133;DHT22;5106;50.926;7.080;2022-07-06T06:15:20;14.70;77.60
10133;DHT22;5106;50.926;7.080;2022-07-06T06:17:46;14.80;77.80
10133;DHT22;5106;50.926;7.080;2022-07-06T06:20:13;15.00;77.40
10133;DHT22;5106;50.926;7.080;2022-07-06T06:22:52;15.10;76.70
10133;DHT22;5106;50.926;7.080;2022-07-06T06:25:21;15.20;76.80
10133;DHT22;5106;50.926;7.080;2022-07-06T06:27:47;15.30;75.90
10133;DHT22;5106;50.926;7.080;2022-07-06T06:30:13;15.30;76.60
10133;DHT22;5106;50.926;7.080;2022-07-06T06:32:39;15.40;76.10
10133;DHT22;5106;50.926;7.080;2022-07-06T06:35:05;15.40;75.50
10133;DHT22;5106;50.926;7.080;2022-07-06T06:37:32;15.50;75.40
10133;DHT22;5106;50.926;7.080;2022-07-06T06:39:57;15.50;74.90
10133;DHT22;5106;50.926;7.080;2022-07-06T06:42:23;15.60;73.70
10133;DHT22;5106;50.926;7.080;2022-07-06T06:44:49;15.70;73.60
10133;DHT22;5106;50.926;7.080;2022-07-06T06:47:14;15.70;74.10
10133;DHT22;5106;50.926;7.080;2022-07-06T06:49:40;15.70;74.00
10133;DHT22;5106;50.926;7.080;2022-07-06T06:52:06;15.80;74.20
10133;DHT22;5106;50.926;7.080;2022-07-06T06:54:31;15.80;74.70
10133;DHT22;5106;50.926;7.080;2022-07-06T06:56:57;15.80;74.50
10133;DHT22;5106;50.926;7.080;2022-07-06T06:59:22;15.80;74.70
10133;DHT22;5106;50.926;7.080;2022-07-06T07:01:48;15.80;73.80
10133;DHT22;5106;50.926;7.080;2022-07-06T07:04:14;15.90;73.50
10133;DHT22;5106;50.926;7.080;2022-07-06T07:06:40;15.90;73.50
10133;DHT22;5106;50.926;7.080;2022-07-06T07:09:05;15.80;73.30
10133;DHT22;5106;50.926;7.080;2022-07-06T07:11:31;15.80;74.60
10133;DHT22;5106;50.926;7.080;2022-07-06T07:13:57;15.90;74.20
10133;DHT22;5106;50.926;7.080;2022-07-06T07:16:23;16.00;72.90
10133;DHT22;5106;50.926;7.080;2022-07-06T07:18:50;16.10;72.60
10133;DHT22;5106;50.926;7.080;2022-07-06T07:21:16;16.20;72.20
10133;DHT22;5106;50.926;7.080;2022-07-06T07:23:42;16.20;71.50
10133;DHT22;5106;50.926;7.080;2022-07-06T07:26:08;16.30;71.70
10133;DHT22;5106;50.926;7.080;2022-07-06T07:28:34;16.40;71.60
10133;DHT22;5106;50.926;7.080;2022-07-06T07:30:59;16.50;72.50
10133;DHT22;5106;50.926;7.080;2022-07-06T07:33:25;16.60;71.20
10133;DHT22;5106;50.926;7.080;2022-07-06T07:35:51;16.60;70.50
10133;DHT22;5106;50.926;7.080;2022-07-06T07:38:16;16.70;69.80
10133;DHT22;5106;50.926;7.080;2022-07-06T07:40:42;16.70;70.40
10133;DHT22;5106;50.926;7.080;2022-07-06T07:43:07;16.80;71.00
10133;DHT22;5106;50.926;7.080;2022-07-06T07:45:33;16.90;70.00
10133;DHT22;5106;50.926;7.080;2022-07-06T07:47:59;16.90;70.40
10133;DHT22;5106;50.926;7.080;2022-07-06T07:50:25;17.00;69.90
10133;DHT22;5106;50.926;7.080;2022-07-06T07:52:52;17.10;69.20
10133;DHT22;5106;50.926;7.080;2022-07-06T07:55:18;17.10;70.20
10133;DHT22;5106;50.926;7.080;2022-07-06T07:57:43;17.00;70.50
10133;DHT22;5106;50.926;7.080;2022-07-06T08:00:09;16.90;69.90
10133;DHT22;5106;50.926;7.080;2022-07-06T08:02:35;16.90;69.60
10133;DHT22;5106;50.926;7.080;2022-07-06T08:05:02;16.80;69.80
10133;DHT22;5106;50.926;7.080;2022-07-06T08:07:28;16.80;70.60
10133;DHT22;5106;50.926;7.080;2022-07-06T08:09:55;16.80;70.20
10133;DHT22;5106;50.926;7.080;2022-07-06T08:12:21;16.70;70.40
10133;DHT22;5106;50.926;7.080;2022-07-06T08:14:46;16.80;69.90
10133;DHT22;5106;50.926;7.080;2022-07-06T08:17:12;16.70;70.60
10133;DHT22;5106;50.926;7.080;2022-07-06T08:19:38;16.80;70.00
10133;DHT22;5106;50.926;7.080;2022-07-06T08:22:03;16.90;70.50
10133;DHT22;5106;50.926;7.080;2022-07-06T08:24:36;17.00;70.50
10133;DHT22;5106;50.926;7.080;2022-07-06T08:27:02;17.10;68.40
10133;DHT22;5106;50.926;7.080;2022-07-06T08:29:29;17.10;68.60
10133;DHT22;5106;50.926;7.080;2022-07-06T08:31:54;17.10;66.90
10133;DHT22;5106;50.926;7.080;2022-07-06T08:34:20;17.00;68.70
10133;DHT22;5106;50.926;7.080;2022-07-06T08:36:46;17.00;68.80
10133;DHT22;5106;50.926;7.080;2022-07-06T08:39:11;17.00;69.20
10133;DHT22;5106;50.926;7.080;2022-07-06T08:41:40;16.90;69.30
10133;DHT22;5106;50.926;7.080;2022-07-06T08:44:08;16.90;70.10
10133;DHT22;5106;50.926;7.080;2022-07-06T08:46:37;16.90;69.80
10133;DHT22;5106;50.926;7.080;2022-07-06T08:49:06;17.00;69.80
10133;DHT22;5106;50.926;7.080;2022-07-06T08:51:31;17.00;69.50
10133;DHT22;5106;50.926;7.080;2022-07-06T08:53:58;17.00;70.50
10133;DHT22;5106;50.926;7.080;2022-07-06T08:56:24;17.00;70.20
10133;DHT22;5106;50.926;7.080;2022-07-06T08:58:50;17.10;69.10
10133;DHT22;5106;50.926;7.080;2022-07-06T09:01:16;17.10;69.40
10133;DHT22;5106;50.926;7.080;2022-07-06T09:03:44;17.20;66.30
10133;DHT22;5106;50.926;7.080;2022-07-06T09:06:11;17.20;67.50
10133;DHT22;5106;50.926;7.080;2022-07-06T09:08:40;17.20;68.10
10133;DHT22;5106;50.926;7.080;2022-07-06T09:11:06;17.40;66.40
10133;DHT22;5106;50.926;7.080;2022-07-06T09:13:32;17.60;65.80
10133;DHT22;5106;50.926;7.080;2022-07-06T09:16:13;17.90;65.30
10133;DHT22;5106;50.926;7.080;2022-07-06T09:18:39;18.10;64.70
10133;DHT22;5106;50.926;7.080;2022-07-06T09:21:07;18.30;64.00
10133;DHT22;5106;50.926;7.080;2022-07-06T09:23:34;18.40;63.30
10133;DHT22;5106;50.926;7.080;2022-07-06T09:26:05;18.50;63.20
10133;DHT22;5106;50.926;7.080;2022-07-06T09:28:44;18.50;61.00
10133;DHT22;5106;50.926;7.080;2022-07-06T09:31:10;18.30;62.00
10133;DHT22;5106;50.926;7.080;2022-07-06T09:33:37;18.20;62.80
10133;DHT22;5106;50.926;7.080;2022-07-06T09:36:04;18.10;64.20
10133;DHT22;5106;50.926;7.080;2022-07-06T09:38:31;18.10;65.70
10133;DHT22;5106;50.926;7.080;2022-07-06T09:40:57;18.00;64.70
10133;DHT22;5106;50.926;7.080;2022-07-06T09:43:24;17.90;65.30
10133;DHT22;5106;50.926;7.080;2022-07-06T09:45:52;17.80;65.70
10133;DHT22;5106;50.926;7.080;2022-07-06T09:48:26;17.60;64.90
10133;DHT22;5106;50.926;7.080;2022-07-06T09:51:01;17.50;66.20
10133;DHT22;5106;50.926;7.080;2022-07-06T09:53:28;17.40;67.00
10133;DHT22;5106;50.926;7.080;2022-07-06T09:55:55;17.30;66.60
10133;DHT22;5106;50.926;7.080;2022-07-06T09:58:21;17.30;65.30
10133;DHT22;5106;50.926;7.080;2022-07-06T10:00:48;17.30;65.90
10133;DHT22;5106;50.926;7.080;2022-07-06T10:03:15;17.30;66.80
10133;DHT22;5106;50.926;7.080;2022-07-06T10:05:43;17.40;66.50
10133;DHT22;5106;50.926;7.080;2022-07-06T10:08:09;17.40;66.90
10133;DHT22;5106;50.926;7.080;2022-07-06T10:10:37;17.50;65.30
10133;DHT22;5106;50.926;7.080;2022-07-06T10:13:04;17.50;67.00
10133;DHT22;5106;50.926;7.080;2022-07-06T10:15:33;17.50;65.20
10133;DHT22;5106;50.926;7.080;2022-07-06T10:18:00;17.60;65.30
10133;DHT22;5106;50.926;7.080;2022-07-06T10:20:32;18.00;64.20
10133;DHT22;5106;50.926;7.080;2022-07-06T10:23:00;18.30;62.80
10133;DHT22;5106;50.926;7.080;2022-07-06T10:25:26;18.60;63.20
10133;DHT22;5106;50.926;7.080;2022-07-06T10:27:53;18.70;62.30
10133;DHT22;5106;50.926;7.080;2022-07-06T10:30:19;19.00;62.50
10133;DHT22;5106;50.926;7.080;2022-07-06T10:32:48;19.20;60.90
10133;DHT22;5106;50.926;7.080;2022-07-06T10:35:14;19.30;60.20
10133;DHT22;5106;50.926;7.080;2022-07-06T10:37:41;19.40;61.70
10133;DHT22;5106;50.926;7.080;2022-07-06T10:40:07;19.40;60.90
10133;DHT22;5106;50.926;7.080;2022-07-06T10:43:02;19.40;60.90
10133;DHT22;5106;50.926;7.080;2022-07-06T10:50:46;19.50;59.20
10133;DHT22;5106;50.926;7.080;2022-07-06T10:53:13;19.50;60.20
10133;DHT22;5106;50.926;7.080;2022-07-06T10:55:41;19.50;60.70
10133;DHT22;5106;50.926;7.080;2022-07-06T10:58:08;19.60;58.60
10133;DHT22;5106;50.926;7.080;2022-07-06T11:00:54;19.70;60.00
10133;DHT22;5106;50.926;7.080;2022-07-06T11:06:08;19.50;61.40
10133;DHT22;5106;50.926;7.080;2022-07-06T11:16:28;19.20;61.80
10133;DHT22;5106;50.926;7.080;2022-07-06T11:19:09;19.30;61.10
10133;DHT22;5106;50.926;7.080;2022-07-06T11:24:05;19.50;60.20
10133;DHT22;5106;50.926;7.080;2022-07-06T11:26:32;19.50;60.00
10133;DHT22;5106;50.926;7.080;2022-07-06T11:28:59;19.40;58.50
10133;DHT22;5106;50.926;7.080;2022-07-06T11:31:27;19.40;61.10
10133;DHT22;5106;50.926;7.080;2022-07-06T11:33:53;19.50;59.40
10133;DHT22;5106;50.926;7.080;2022-07-06T11:36:20;19.60;57.70
10133;DHT22;5106;50.926;7.080;2022-07-06T11:38:48;19.70;59.70
10133;DHT22;5106;50.926;7.080;2022-07-06T11:41:15;19.90;61.70
10133;DHT22;5106;50.926;7.080;2022-07-06T11:43:45;19.90;60.90
10133;DHT22;5106;50.926;7.080;2022-07-06T11:46:22;20.00;57.70
10133;DHT22;5106;50.926;7.080;2022-07-06T11:48:50;19.90;56.10
10133;DHT22;5106;50.926;7.080;2022-07-06T11:51:15;19.90;58.70
10133;DHT22;5106;50.926;7.080;2022-07-06T11:54:08;20.00;54.80
10133;DHT22;5106;50.926;7.080;2022-07-06T11:56:34;20.00;56.10
10133;DHT22;5106;50.926;7.080;2022-07-06T11:59:00;20.20;54.00
10133;DHT22;5106;50.926;7.080;2022-07-06T12:01:27;20.10;56.10
10133;DHT22;5106;50.926;7.080;2022-07-06T12:03:57;20.00;54.00
10133;DHT22;5106;50.926;7.080;2022-07-06T12:06:24;20.00;55.90
10133;DHT22;5106;50.926;7.080;2022-07-06T12:08:51;20.00;57.30
10133;DHT22;5106;50.926;7.080;2022-07-06T12:11:28;20.00;57.90
10133;DHT22;5106;50.926;7.080;2022-07-06T12:13:56;20.00;57.60
10133;DHT22;5106;50.926;7.080;2022-07-06T12:16:29;20.00;54.60
10133;DHT22;5106;50.926;7.080;2022-07-06T12:18:55;20.10;54.90
10133;DHT22;5106;50.926;7.080;2022-07-06T12:21:21;20.30;57.20
10133;DHT22;5106;50.926;7.080;2022-07-06T12:23:51;20.40;54.20
10133;DHT22;5106;50.926;7.080;2022-07-06T12:26:19;20.50;56.20
10133;DHT22;5106;50.926;7.080;2022-07-06T12:28:46;20.50;54.40
10133;DHT22;5106;50.926;7.080;2022-07-06T12:31:38;20.50;55.00
10133;DHT22;5106;50.926;7.080;2022-07-06T12:34:05;20.40;55.80
10133;DHT22;5106;50.926;7.080;2022-07-06T12:36:31;20.30;54.30
10133;DHT22;5106;50.926;7.080;2022-07-06T12:38:57;20.30;57.10
10133;DHT22;5106;50.926;7.080;2022-07-06T12:41:31;20.10;57.60
10133;DHT22;5106;50.926;7.080;2022-07-06T12:44:08;20.10;57.30
10133;DHT22;5106;50.926;7.080;2022-07-06T12:46:39;20.10;59.00
10133;DHT22;5106;50.926;7.080;2022-07-06T12:49:22;20.00;59.90
10133;DHT22;5106;50.926;7.080;2022-07-06T12:52:12;20.00;56.50
10133;DHT22;5106;50.926;7.080;2022-07-06T12:54:45;20.10;58.50
10133;DHT22;5106;50.926;7.080;2022-07-06T12:59:46;20.40;55.50
10133;DHT22;5106;50.926;7.080;2022-07-06T13:02:31;20.40;56.30
10133;DHT22;5106;50.926;7.080;2022-07-06T13:05:05;20.40;57.50
10133;DHT22;5106;50.926;7.080;2022-07-06T13:07:32;20.30;55.60
10133;DHT22;5106;50.926;7.080;2022-07-06T13:10:02;20.20;57.50
10133;DHT22;5106;50.926;7.080;2022-07-06T13:12:28;20.20;57.20
10133;DHT22;5106;50.926;7.080;2022-07-06T13:14:54;20.10;56.10
10133;DHT22;5106;50.926;7.080;2022-07-06T13:17:20;20.10;57.30
10133;DHT22;5106;50.926;7.080;2022-07-06T13:19:45;20.20;59.30
10133;DHT22;5106;50.926;7.080;2022-07-06T13:22:11;20.30;56.70
10133;DHT22;5106;50.926;7.080;2022-07-06T13:24:37;20.40;55.80
10133;DHT22;5106;50.926;7.080;2022-07-06T13:27:03;20.50;56.20
10133;DHT22;5106;50.926;7.080;2022-07-06T13:29:29;20.60;57.30
10133;DHT22;5106;50.926;7.080;2022-07-06T13:31:54;20.60;54.80
10133;DHT22;5106;50.926;7.080;2022-07-06T13:34:20;20.60;56.20
10133;DHT22;5106;50.926;7.080;2022-07-06T13:36:46;20.70;56.60
10133;DHT22;5106;50.926;7.080;2022-07-06T13:39:11;20.70;53.50
10133;DHT22;5106;50.926;7.080;2022-07-06T13:41:44;20.60;54.50
10133;DHT22;5106;50.926;7.080;2022-07-06T13:44:09;20.60;56.60
10133;DHT22;5106;50.926;7.080;2022-07-06T13:46:37;20.70;55.00
10133;DHT22;5106;50.926;7.080;2022-07-06T13:49:04;20.90;54.60
10133;DHT22;5106;50.926;7.080;2022-07-06T13:51:31;20.90;56.00
10133;DHT22;5106;50.926;7.080;2022-07-06T13:53:58;21.00;55.40
10133;DHT22;5106;50.926;7.080;2022-07-06T13:56:24;21.10;52.50
10133;DHT22;5106;50.926;7.080;2022-07-06T13:58:50;21.10;53.70
10133;DHT22;5106;50.926;7.080;2022-07-06T14:01:16;21.00;53.40
10133;DHT22;5106;50.926;7.080;2022-07-06T14:03:42;20.80;53.00
10133;DHT22;5106;50.926;7.080;2022-07-06T14:06:08;20.70;53.90
10133;DHT22;5106;50.926;7.080;2022-07-06T14:08:35;20.70;54.70
10133;DHT22;5106;50.926;7.080;2022-07-06T14:11:02;20.80;57.10
10133;DHT22;5106;50.926;7.080;2022-07-06T14:13:28;21.00;57.80
10133;DHT22;5106;50.926;7.080;2022-07-06T14:15:54;21.20;55.20
10133;DHT22;5106;50.926;7.080;2022-07-06T14:18:21;21.30;53.80
10133;DHT22;5106;50.926;7.080;2022-07-06T14:20:49;21.40;54.80
10133;DHT22;5106;50.926;7.080;2022-07-06T14:23:16;21.40;53.70
10133;DHT22;5106;50.926;7.080;2022-07-06T14:25:42;21.50;53.00
10133;DHT22;5106;50.926;7.080;2022-07-06T14:28:08;21.30;53.50
10133;DHT22;5106;50.926;7.080;2022-07-06T14:30:35;21.20;53.60
10133;DHT22;5106;50.926;7.080;2022-07-06T14:33:05;21.30;55.50
10133;DHT22;5106;50.926;7.080;2022-07-06T14:35:39;21.40;54.40
10133;DHT22;5106;50.926;7.080;2022-07-06T14:38:06;21.60;54.90
10133;DHT22;5106;50.926;7.080;2022-07-06T14:40:33;21.50;53.80
10133;DHT22;5106;50.926;7.080;2022-07-06T14:42:59;21.40;54.00
10133;DHT22;5106;50.926;7.080;2022-07-06T14:45:25;21.40;53.60
10133;DHT22;5106;50.926;7.080;2022-07-06T14:47:51;21.40;54.70
10133;DHT22;5106;50.926;7.080;2022-07-06T14:50:17;21.30;54.00
10133;DHT22;5106;50.926;7.080;2022-07-06T14:52:42;21.30;54.70
10133;DHT22;5106;50.926;7.080;2022-07-06T14:55:08;21.30;55.00
10133;DHT22;5106;50.926;7.080;2022-07-06T14:57:34;21.20;54.60
10133;DHT22;5106;50.926;7.080;2022-07-06T14:59:59;21.00;54.90
10133;DHT22;5106;50.926;7.080;2022-07-06T15:02:25;21.00;54.70
10133;DHT22;5106;50.926;7.080;2022-07-06T15:04:51;21.00;54.70
10133;DHT22;5106;50.926;7.080;2022-07-06T15:07:16;21.00;54.20
10133;DHT22;5106;50.926;7.080;2022-07-06T15:09:42;21.20;52.80
10133;DHT22;5106;50.926;7.080;2022-07-06T15:12:08;21.30;53.90
10133;DHT22;5106;50.926;7.080;2022-07-06T15:14:34;21.40;55.50
10133;DHT22;5106;50.926;7.080;2022-07-06T15:16:59;21.60;52.90
10133;DHT22;5106;50.926;7.080;2022-07-06T15:19:26;21.80;53.00
10133;DHT22;5106;50.926;7.080;2022-07-06T15:21:53;21.80;52.80
10133;DHT22;5106;50.926;7.080;2022-07-06T15:24:19;21.70;53.20
10133;DHT22;5106;50.926;7.080;2022-07-06T15:26:44;21.70;55.10
10133;DHT22;5106;50.926;7.080;2022-07-06T15:29:10;21.80;54.60
10133;DHT22;5106;50.926;7.080;2022-07-06T15:31:36;21.80;51.70
10133;DHT22;5106;50.926;7.080;2022-07-06T15:34:01;21.70;52.10
10133;DHT22;5106;50.926;7.080;2022-07-06T15:36:27;21.60;52.80
10133;DHT22;5106;50.926;7.080;2022-07-06T15:38:53;21.50;51.90
10133;DHT22;5106;50.926;7.080;2022-07-06T15:41:18;21.60;53.60
10133;DHT22;5106;50.926;7.080;2022-07-06T15:43:44;21.80;56.80
10133;DHT22;5106;50.926;7.080;2022-07-06T15:46:11;21.80;51.00
10133;DHT22;5106;50.926;7.080;2022-07-06T15:48:37;21.90;51.10
10133;DHT22;5106;50.926;7.080;2022-07-06T15:51:03;21.90;52.20
10133;DHT22;5106;50.926;7.080;2022-07-06T15:53:29;22.10;53.90
10133;DHT22;5106;50.926;7.080;2022-07-06T15:55:56;22.30;52.60
10133;DHT22;5106;50.926;7.080;2022-07-06T15:58:22;22.40;51.40
10133;DHT22;5106;50.926;7.080;2022-07-06T16:00:49;22.40;51.50
10133;DHT22;5106;50.926;7.080;2022-07-06T16:03:14;22.40;52.70
10133;DHT22;5106;50.926;7.080;2022-07-06T16:05:40;22.30;53.80